Time;durP1;ratioP1;P1;durP2;ratioP2;P2;SDS_P1;SDS_P2;PMS_P1;PMS_P2;Temp;Humidity;BMP_temperature;BMP_pressure;BME280_temperature;BME280_humidity;BME280_pressure;Samples;Min_cycle;Max_cycle;Signal;HPM_P1;HPM_P2
2020/12/08 00:01:22;;;;;;;3.15;2.85;;;;;;;15.40;49.49;99540.41;5003523;27;127886;-59
2020/12/08 00:03:48;;;;;;;3.25;2.95;;;;;;;15.37;49.33;99532.94;5002875;27;127338;-60
2020/12/08 00:06:14;;;;;;;3.28;2.97;;;;;;;15.37;49.49;99532.94;4984373;27;117320;-57
2020/12/08 00:08:40;;;;;;;3.38;2.90;;;;;;;15.37;49.66;99538.38;5002403;27;127985;-58
2020/12/08 00:11:06;;;;;;;2.85;2.50;;;;;;;15.37;49.49;99546.50;5001656;27;127973;-58
2020/12/08 00:13:32;;;;;;;3.13;2.70;;;;;;;15.38;49.47;99548.09;4967670;27;126591;-59
2020/12/08 00:15:58;;;;;;;3.05;2.75;;;;;;;15.38;49.77;99547.31;5002244;27;117129;-58
2020/12/08 00:18:24;;;;;;;2.53;2.33;;;;;;;15.37;49.80;99551.94;4985340;27;118930;-59
2020/12/08 00:20:50;;;;;;;2.70;2.45;;;;;;;15.39;49.61;99549.69;4975262;28;127843;-59
2020/12/08 00:23:16;;;;;;;3.00;2.60;;;;;;;15.38;49.91;99553.53;4964059;28;127404;-60
2020/12/08 00:25:42;;;;;;;2.80;2.22;;;;;;;15.41;49.70;99562.97;4964763;28;115068;-60
2020/12/08 00:28:08;;;;;;;2.75;2.55;;;;;;;15.40;50.01;99559.44;4987649;27;97907;-60
2020/12/08 00:30:35;;;;;;;3.25;2.53;;;;;;;15.42;49.55;99567.28;5004038;27;98037;-58
2020/12/08 00:33:01;;;;;;;3.00;2.50;;;;;;;15.41;49.88;99561.03;5003335;27;97832;-59
2020/12/08 00:35:27;;;;;;;3.50;2.50;;;;;;;15.43;50.08;99558.00;5003136;27;116137;-59
2020/12/08 00:37:53;;;;;;;3.00;2.60;;;;;;;15.45;49.56;99563.91;5002846;27;110159;-58
2020/12/08 00:40:19;;;;;;;2.60;2.40;;;;;;;15.43;49.84;99558.00;5003103;27;112669;-58
2020/12/08 00:42:45;;;;;;;3.10;2.40;;;;;;;15.44;50.32;99562.31;5004276;27;97998;-59
2020/12/08 00:45:12;;;;;;;3.00;2.42;;;;;;;15.42;49.77;99557.22;5003749;27;97797;-60
2020/12/08 00:47:38;;;;;;;2.47;2.28;;;;;;;15.42;50.19;99548.25;5002008;27;98270;-58
2020/12/08 00:50:05;;;;;;;3.00;2.70;;;;;;;15.41;49.82;99544.75;5001083;27;127000;-58
2020/12/08 00:52:32;;;;;;;2.78;2.47;;;;;;;15.43;50.29;99555.28;5003912;27;98326;-58
2020/12/08 00:54:58;;;;;;;2.95;2.65;;;;;;;15.42;50.24;99551.78;5023082;27;97812;-59
2020/12/08 00:57:24;;;;;;;2.75;2.55;;;;;;;15.42;50.44;99548.25;5022817;27;127643;-58
2020/12/08 00:59:50;;;;;;;2.97;2.47;;;;;;;15.41;50.52;99562.97;5022609;27;128534;-58
2020/12/08 01:02:19;;;;;;;2.80;2.40;;;;;;;15.39;50.44;99562.47;5023337;27;111974;-58
2020/12/08 01:04:45;;;;;;;2.90;2.53;;;;;;;15.38;50.47;99555.47;5023283;27;116862;-59
2020/12/08 01:07:12;;;;;;;2.95;2.60;;;;;;;15.38;50.59;99561.69;5023590;27;109178;-59
2020/12/08 01:09:38;;;;;;;3.05;2.47;;;;;;;15.40;50.48;99553.22;5003526;27;98386;-59
2020/12/08 01:12:04;;;;;;;2.97;2.67;;;;;;;15.37;50.25;99551.94;4987564;27;123491;-58
2020/12/08 01:14:32;;;;;;;2.53;2.33;;;;;;;15.38;50.36;99541.88;5024443;27;97850;-57
2020/12/08 01:16:59;;;;;;;3.00;2.70;;;;;;;15.37;50.37;99535.66;5022591;27;127886;-60
2020/12/08 01:19:25;;;;;;;3.00;2.70;;;;;;;15.36;50.62;99535.97;5023554;27;98827;-59
2020/12/08 01:21:55;;;;;;;2.90;2.55;;;;;;;15.36;50.70;99534.03;5023560;27;97911;-58
2020/12/08 01:24:21;;;;;;;3.60;2.85;;;;;;;15.37;50.37;99534.88;5022677;27;110168;-59
2020/12/08 01:26:47;;;;;;;3.08;2.70;;;;;;;15.36;50.83;99536.75;5021932;27;125891;-59
2020/12/08 01:29:13;;;;;;;3.33;2.83;;;;;;;15.36;50.60;99536.75;5022208;27;122640;-58
2020/12/08 01:31:39;;;;;;;4.03;2.50;;;;;;;15.36;50.85;99542.19;5022330;27;102334;-59
2020/12/08 01:34:07;;;;;;;3.20;2.88;;;;;;;15.37;50.59;99534.88;5023486;27;97810;-59
2020/12/08 01:36:34;;;;;;;2.95;2.65;;;;;;;15.35;50.86;99535.16;5022245;27;98244;-59
2020/12/08 01:39:00;;;;;;;2.72;2.47;;;;;;;15.35;50.71;99535.16;5023450;27;98828;-59
2020/12/08 01:41:26;;;;;;;3.63;2.78;;;;;;;15.33;50.60;99531.19;5022250;27;112691;-58
2020/12/08 01:43:52;;;;;;;3.20;2.90;;;;;;;15.32;50.83;99533.09;5023352;27;99379;-59
2020/12/08 01:46:22;;;;;;;3.20;2.90;;;;;;;15.30;51.07;99516.34;5022917;27;98428;-59
2020/12/08 01:48:48;;;;;;;3.47;3.08;;;;;;;15.28;50.93;99513.13;5004797;27;103634;-59
2020/12/08 01:51:16;;;;;;;3.58;2.90;;;;;;;15.28;51.15;99502.28;5022487;27;97811;-59
2020/12/08 01:53:43;;;;;;;3.67;3.33;;;;;;;15.26;51.04;99507.25;5004775;27;109257;-59
2020/12/08 01:56:11;;;;;;;3.40;3.10;;;;;;;15.25;51.08;99505.66;5022518;27;98591;-59
2020/12/08 01:58:37;;;;;;;3.30;3.00;;;;;;;15.24;50.94;99501.31;4988085;27;111494;-60
2020/12/08 02:01:03;;;;;;;3.67;3.00;;;;;;;15.22;51.46;99496.22;5006139;27;126658;-58
2020/12/08 02:03:30;;;;;;;3.90;2.80;;;;;;;15.22;51.15;99503.56;5007916;27;117903;-58
2020/12/08 02:05:56;;;;;;;3.25;2.90;;;;;;;15.21;51.08;99507.41;4973904;27;98509;-59
2020/12/08 02:08:33;;;;;;;3.38;3.08;;;;;;;15.16;51.36;99507.56;5025749;27;121778;-59
2020/12/08 02:10:59;;;;;;;3.63;3.00;;;;;;;15.19;51.37;99512.34;5024427;27;118095;-58
2020/12/08 02:13:26;;;;;;;3.40;3.05;;;;;;;15.20;51.52;99512.03;5025626;27;106172;-58
2020/12/08 02:15:52;;;;;;;4.20;2.88;;;;;;;15.21;51.26;99518.28;5006736;27;115925;-58
2020/12/08 02:18:19;;;;;;;3.58;3.28;;;;;;;15.24;51.57;99517.59;5025207;27;127963;-59
2020/12/08 02:20:45;;;;;;;4.20;3.15;;;;;;;15.23;51.45;99516.81;5025372;27;115214;-61
2020/12/08 02:23:11;;;;;;;3.30;3.03;;;;;;;15.26;51.17;99523.53;5026636;27;97639;-58
2020/12/08 02:25:41;;;;;;;4.07;3.67;;;;;;;15.26;51.29;99520.03;5024538;27;128280;-58
2020/12/08 02:28:08;;;;;;;5.45;3.30;;;;;;;15.25;51.57;99523.84;5026256;27;98873;-59
2020/12/08 02:30:35;;;;;;;3.83;3.42;;;;;;;15.29;51.64;99525.59;5025220;27;97960;-58
2020/12/08 02:33:01;;;;;;;3.90;3.42;;;;;;;15.27;51.64;99527.84;5025557;27;97652;-59
2020/12/08 02:35:27;;;;;;;4.10;3.70;;;;;;;15.31;51.37;99528.00;5025644;27;98439;-59
2020/12/08 02:37:53;;;;;;;4.25;3.85;;;;;;;15.29;51.65;99527.50;5025293;27;128285;-59
2020/12/08 02:40:19;;;;;;;4.38;3.88;;;;;;;15.30;51.42;99529.13;5029849;27;127520;-58
2020/12/08 02:42:45;;;;;;;4.53;3.75;;;;;;;15.32;51.43;99529.56;5025656;27;116693;-62
2020/12/08 02:45:14;;;;;;;4.32;3.80;;;;;;;15.30;51.32;99526.41;5024279;27;127195;-58
2020/12/08 02:47:40;;;;;;;4.93;3.60;;;;;;;15.32;51.81;99533.09;5024990;27;121382;-60
2020/12/08 02:50:06;;;;;;;4.63;4.22;;;;;;;15.33;51.36;99528.47;5024248;27;127667;-60
2020/12/08 02:52:33;;;;;;;5.43;4.00;;;;;;;15.31;52.07;99515.22;4987615;27;97872;-58
2020/12/08 02:55:00;;;;;;;5.00;4.55;;;;;;;15.33;51.44;99523.84;4986180;27;105815;-60
2020/12/08 02:57:26;;;;;;;4.10;3.70;;;;;;;15.35;51.35;99528.94;5008566;27;128374;-60
2020/12/08 02:59:52;;;;;;;4.90;4.40;;;;;;;15.34;51.82;99527.34;5004233;27;97808;-60
2020/12/08 03:02:18;;;;;;;5.13;4.53;;;;;;;15.34;51.64;99519.22;5014398;27;103022;-60
2020/12/08 03:04:44;;;;;;;4.82;4.32;;;;;;;15.34;51.49;99520.00;5008139;27;127006;-60
2020/12/08 03:07:10;;;;;;;4.30;3.90;;;;;;;15.35;51.52;99526.22;5007627;27;128691;-58
2020/12/08 03:09:37;;;;;;;4.82;4.30;;;;;;;15.34;51.50;99536.28;5023533;27;127421;-58
2020/12/08 03:12:07;;;;;;;4.63;4.22;;;;;;;15.32;52.04;99535.81;5024348;27;115508;-60
2020/12/08 03:14:33;;;;;;;5.00;4.50;;;;;;;15.32;51.71;99535.00;5008188;27;98329;-58
2020/12/08 03:16:59;;;;;;;4.55;4.05;;;;;;;15.30;51.94;99535.34;5005540;27;99040;-60
2020/12/08 03:19:25;;;;;;;5.80;4.50;;;;;;;15.30;52.06;99537.25;5020261;27;127405;-61
2020/12/08 03:21:51;;;;;;;5.28;4.75;;;;;;;15.31;51.97;99528.78;5024807;27;117572;-58
2020/12/08 03:24:17;;;;;;;5.03;4.43;;;;;;;15.29;52.09;99528.31;5011675;27;128652;-60
2020/12/08 03:26:43;;;;;;;5.05;4.32;;;;;;;15.29;51.69;99531.03;5004547;27;117787;-58
2020/12/08 03:29:09;;;;;;;4.85;4.38;;;;;;;15.29;51.60;99527.50;5004324;27;127244;-58
2020/12/08 03:31:35;;;;;;;4.85;4.45;;;;;;;15.27;52.15;99533.25;5004367;27;117024;-60
2020/12/08 03:34:02;;;;;;;5.03;4.50;;;;;;;15.25;52.02;99530.09;5008306;27;100288;-58
2020/12/08 03:36:28;;;;;;;5.30;4.80;;;;;;;15.25;51.98;99523.84;5025006;27;98343;-60
2020/12/08 03:38:54;;;;;;;5.03;4.43;;;;;;;15.26;52.11;99528.16;5024212;27;127396;-58
2020/12/08 03:41:23;;;;;;;5.45;4.85;;;;;;;15.22;51.88;99523.38;5025455;27;97931;-58
2020/12/08 03:43:53;;;;;;;5.07;4.55;;;;;;;15.22;51.96;99526.09;5021513;27;111464;-58
2020/12/08 03:46:21;;;;;;;5.18;4.65;;;;;;;15.20;52.33;99522.09;5004461;27;101175;-60
2020/12/08 03:48:47;;;;;;;4.82;4.38;;;;;;;15.17;52.21;99526.25;5004021;27;97924;-61
2020/12/08 03:51:15;;;;;;;5.05;4.55;;;;;;;15.16;52.12;99531.97;5016402;27;97952;-58
2020/12/08 03:53:41;;;;;;;5.18;4.68;;;;;;;15.13;51.98;99528.00;5024140;27;98297;-58
2020/12/08 03:56:26;;;;;;;5.30;4.80;;;;;;;15.09;52.27;99528.94;5024691;27;99226;-58
2020/12/08 03:58:52;;;;;;;5.18;4.68;;;;;;;15.11;52.07;99530.22;5024303;27;98069;-58
2020/12/08 04:01:20;;;;;;;5.85;5.10;;;;;;;15.10;52.30;99536.00;5023302;27;98626;-58
2020/12/08 04:03:47;;;;;;;5.40;4.90;;;;;;;15.09;52.22;99532.50;5005316;27;117574;-60
2020/12/08 04:06:13;;;;;;;5.78;5.28;;;;;;;15.10;52.36;99542.22;5023160;27;98319;-58
2020/12/08 04:08:40;;;;;;;5.50;5.00;;;;;;;15.07;52.02;99529.28;5004173;27;97975;-60
2020/12/08 04:11:06;;;;;;;6.10;5.30;;;;;;;15.08;52.32;99541.72;5004359;27;97980;-58
2020/12/08 04:13:33;;;;;;;6.20;5.60;;;;;;;15.05;52.61;99545.09;5003382;27;127025;-60
2020/12/08 04:15:59;;;;;;;6.00;5.40;;;;;;;15.05;52.27;99547.81;5003256;27;127997;-60
2020/12/08 04:18:25;;;;;;;6.20;5.60;;;;;;;15.03;52.33;99543.81;5012425;27;97887;-58
2020/12/08 04:20:51;;;;;;;5.70;5.20;;;;;;;15.03;52.55;99557.38;5025028;27;98021;-60
2020/12/08 04:23:19;;;;;;;5.85;5.25;;;;;;;15.03;52.50;99557.38;5014659;27;110831;-60
2020/12/08 04:25:45;;;;;;;6.60;6.00;;;;;;;15.01;52.13;99554.97;5002491;27;97889;-58
2020/12/08 04:28:11;;;;;;;5.97;5.47;;;;;;;14.99;52.43;99557.22;5007700;27;98586;-60
2020/12/08 04:30:38;;;;;;;6.53;5.93;;;;;;;14.98;52.71;99567.28;5022763;27;118096;-58
2020/12/08 04:33:05;;;;;;;6.30;5.63;;;;;;;14.95;52.26;99565.19;5005490;27;98792;-60
2020/12/08 04:35:31;;;;;;;6.75;6.10;;;;;;;14.94;52.69;99562.81;5023820;27;112617;-58
2020/12/08 04:37:57;;;;;;;6.07;5.47;;;;;;;14.92;52.64;99559.59;5023100;27;109027;-60
2020/12/08 04:40:24;;;;;;;6.70;6.10;;;;;;;14.92;52.29;99570.44;5018852;27;117158;-60
2020/12/08 04:42:53;;;;;;;7.05;6.35;;;;;;;14.91;52.48;99566.94;4967813;27;100059;-60
2020/12/08 04:45:20;;;;;;;6.63;6.03;;;;;;;14.93;52.27;99572.03;4984352;27;98611;-60
2020/12/08 04:47:46;;;;;;;6.97;6.25;;;;;;;14.93;52.11;99569.31;5019319;27;114869;-60
2020/12/08 04:50:13;;;;;;;6.82;6.18;;;;;;;14.93;52.07;99569.31;5008423;27;98291;-58
2020/12/08 04:52:42;;;;;;;6.72;6.13;;;;;;;14.93;52.42;99570.16;5003437;27;98199;-58
2020/12/08 04:55:08;;;;;;;6.50;5.90;;;;;;;14.96;52.23;99574.91;5003136;27;99158;-58
2020/12/08 04:57:34;;;;;;;6.60;6.00;;;;;;;15.03;51.54;99576.38;5003348;27;98163;-60
2020/12/08 05:00:11;;;;;;;6.88;6.18;;;;;;;15.02;51.90;99574.78;5001574;27;114817;-58
2020/12/08 05:02:54;;;;;;;6.63;6.03;;;;;;;15.06;52.12;99576.53;5003417;27;98518;-58
2020/12/08 05:05:21;;;;;;;6.30;5.70;;;;;;;15.12;51.88;99588.03;5002843;27;98877;-57
2020/12/08 05:07:47;;;;;;;6.88;6.28;;;;;;;15.15;51.78;99581.97;5002063;27;98308;-58
2020/12/08 05:10:14;;;;;;;6.57;5.97;;;;;;;15.12;51.57;99575.25;4972842;28;105200;-58
2020/12/08 05:12:40;;;;;;;7.40;6.40;;;;;;;15.16;51.52;99583.56;4998692;27;98398;-58
2020/12/08 05:15:15;;;;;;;7.20;6.40;;;;;;;15.17;51.79;99593.31;5001915;27;101250;-59
2020/12/08 05:17:41;;;;;;;6.68;6.07;;;;;;;15.20;51.79;99592.66;4998160;27;98385;-60
2020/12/08 05:20:10;;;;;;;6.85;6.18;;;;;;;15.19;51.27;99591.88;5012856;27;119378;-58
2020/12/08 05:22:36;;;;;;;6.55;5.82;;;;;;;15.20;51.57;99589.94;5003356;27;99268;-58
2020/12/08 05:25:13;;;;;;;6.68;6.00;;;;;;;15.18;51.32;99594.91;5001563;27;128219;-60
2020/12/08 05:27:45;;;;;;;6.80;6.20;;;;;;;15.17;51.59;99594.13;5002880;27;97666;-58
2020/12/08 05:30:11;;;;;;;7.00;6.22;;;;;;;15.14;51.35;99594.75;5002472;27;108613;-60
2020/12/08 05:32:40;;;;;;;6.82;6.13;;;;;;;15.14;51.51;99593.94;5001924;27;128918;-60
2020/12/08 05:35:11;;;;;;;6.88;6.18;;;;;;;15.14;51.72;99593.94;5005599;27;98786;-58
2020/12/08 05:37:42;;;;;;;6.82;6.13;;;;;;;15.12;51.38;99598.88;5005635;27;98362;-60
2020/12/08 05:40:13;;;;;;;7.07;6.00;;;;;;;15.13;51.73;99592.31;5006456;27;98056;-60
2020/12/08 05:42:40;;;;;;;7.07;6.18;;;;;;;15.11;51.70;99586.44;5006369;27;98194;-58
2020/12/08 05:45:09;;;;;;;6.90;6.30;;;;;;;15.11;51.74;99581.81;5006876;27;98543;-60
2020/12/08 05:47:42;;;;;;;6.45;5.85;;;;;;;15.09;51.43;99586.75;5006915;27;97971;-60
2020/12/08 05:50:08;;;;;;;7.35;6.65;;;;;;;15.09;51.53;99584.06;5007287;27;98053;-58
2020/12/08 05:52:35;;;;;;;7.03;6.32;;;;;;;15.09;51.76;99594.09;5010883;27;105162;-58
2020/12/08 05:55:16;;;;;;;8.05;6.43;;;;;;;15.05;51.89;99596.66;5026096;27;99253;-60
2020/12/08 05:57:42;;;;;;;6.68;6.00;;;;;;;15.07;51.84;99599.03;5026281;27;98003;-58
2020/12/08 06:00:25;;;;;;;6.72;6.13;;;;;;;15.02;51.69;99599.22;5026065;27;98174;-60
2020/12/08 06:02:52;;;;;;;7.22;6.53;;;;;;;15.03;51.70;99606.22;4991369;27;98792;-60
2020/12/08 06:05:32;;;;;;;6.82;6.13;;;;;;;15.00;51.66;99599.50;5008239;27;98757;-58
2020/12/08 06:07:58;;;;;;;7.10;6.40;;;;;;;15.03;51.98;99600.78;5026365;27;107068;-60
2020/12/08 06:10:25;;;;;;;6.97;6.38;;;;;;;15.02;51.60;99599.22;5008288;27;97896;-58
2020/12/08 06:13:01;;;;;;;7.68;6.97;;;;;;;14.97;51.80;99603.66;5006765;27;98887;-60
2020/12/08 06:15:40;;;;;;;7.72;7.03;;;;;;;15.00;51.66;99610.38;5026140;27;98397;-60
2020/12/08 06:18:07;;;;;;;7.70;7.00;;;;;;;15.03;52.19;99606.22;5025496;27;97973;-58
2020/12/08 06:20:37;;;;;;;8.38;7.57;;;;;;;14.97;52.14;99600.97;5026676;27;97792;-60
2020/12/08 06:23:03;;;;;;;7.55;6.85;;;;;;;15.01;51.86;99603.00;5025769;27;98272;-58
2020/12/08 06:25:30;;;;;;;7.80;7.07;;;;;;;14.98;51.67;99602.56;5024781;27;98670;-58
2020/12/08 06:27:58;;;;;;;8.23;7.28;;;;;;;15.00;51.90;99602.22;5024545;27;97923;-60
2020/12/08 06:30:24;;;;;;;8.15;7.40;;;;;;;14.98;51.74;99596.31;5024214;27;106076;-60
2020/12/08 06:32:50;;;;;;;7.60;6.90;;;;;;;14.94;51.91;99600.78;5022674;27;122163;-60
2020/12/08 06:35:17;;;;;;;7.72;7.03;;;;;;;14.93;51.95;99610.84;5023215;27;100921;-60
2020/12/08 06:37:51;;;;;;;8.30;7.50;;;;;;;14.89;52.06;99609.06;5023789;27;98311;-58
2020/12/08 06:40:25;;;;;;;8.43;7.57;;;;;;;14.90;52.17;99613.41;5023686;27;97683;-58
2020/12/08 06:42:52;;;;;;;7.97;7.18;;;;;;;14.88;52.34;99618.31;5022686;27;99609;-60
2020/12/08 06:45:23;;;;;;;7.90;7.10;;;;;;;14.83;52.49;99624.69;5022437;27;98419;-60
2020/12/08 06:47:50;;;;;;;8.35;7.55;;;;;;;14.81;52.37;99626.13;5023242;27;97953;-60
2020/12/08 06:50:25;;;;;;;8.23;7.43;;;;;;;14.76;52.05;99637.13;5023558;27;97702;-58
2020/12/08 06:52:59;;;;;;;9.07;8.18;;;;;;;14.74;52.26;99634.75;5022309;27;99317;-60
2020/12/08 06:55:25;;;;;;;8.60;7.80;;;;;;;14.73;52.43;99636.63;5022400;27;109969;-61
2020/12/08 06:57:52;;;;;;;9.07;8.18;;;;;;;14.74;52.40;99642.88;5023058;27;97705;-58
2020/12/08 07:00:18;;;;;;;8.95;8.05;;;;;;;14.71;52.17;99640.78;5023677;27;97836;-58
2020/12/08 07:02:49;;;;;;;8.95;8.05;;;;;;;14.72;52.08;99645.09;5021992;27;98700;-60
2020/12/08 07:05:24;;;;;;;8.68;7.78;;;;;;;14.67;52.52;99653.38;5004079;27;98322;-58
2020/12/08 07:07:50;;;;;;;9.55;8.10;;;;;;;14.67;52.31;99653.38;5003834;27;97820;-58
2020/12/08 07:10:19;;;;;;;8.68;7.78;;;;;;;14.64;52.17;99657.50;5004063;27;99243;-60
2020/12/08 07:12:50;;;;;;;8.63;7.80;;;;;;;14.67;52.30;99661.53;5022241;27;98887;-58
2020/12/08 07:15:17;;;;;;;8.23;7.45;;;;;;;14.67;52.32;99666.94;5022365;27;98607;-60
2020/12/08 07:17:43;;;;;;;8.90;8.00;;;;;;;14.68;52.30;99665.81;5022931;27;98132;-60
2020/12/08 07:20:10;;;;;;;8.70;7.72;;;;;;;14.69;52.53;99662.00;5022931;27;97896;-60
2020/12/08 07:22:46;;;;;;;8.40;7.60;;;;;;;14.65;52.36;99659.09;5003714;27;99709;-58
2020/12/08 07:25:14;;;;;;;8.23;7.43;;;;;;;14.67;52.34;99662.31;5022152;27;98964;-60
2020/12/08 07:27:48;;;;;;;8.07;7.28;;;;;;;14.66;52.71;99666.16;5022070;27;98117;-58
2020/12/08 07:30:16;;;;;;;8.02;7.32;;;;;;;14.68;52.75;99658.47;5022653;27;97930;-58
2020/12/08 07:32:42;;;;;;;8.68;7.88;;;;;;;14.68;52.63;99663.09;5022784;27;98534;-58
2020/12/08 07:35:24;;;;;;;8.15;7.18;;;;;;;14.67;52.80;99665.03;5020039;27;129333;-58
2020/12/08 07:37:52;;;;;;;8.25;7.45;;;;;;;14.71;53.09;99666.00;5023131;27;98093;-60
2020/12/08 07:40:18;;;;;;;8.00;7.20;;;;;;;14.76;53.21;99665.06;5022277;27;97809;-58
2020/12/08 07:42:50;;;;;;;8.82;7.65;;;;;;;14.83;53.20;99676.25;5021586;27;98736;-58
2020/12/08 07:45:16;;;;;;;8.02;7.30;;;;;;;14.88;53.08;99676.09;5021947;27;98885;-60
2020/12/08 07:47:55;;;;;;;7.90;7.13;;;;;;;14.94;53.16;99669.41;5022367;27;98179;-58
2020/12/08 07:50:29;;;;;;;8.32;7.53;;;;;;;15.04;52.95;99679.16;5022320;27;105162;-58
2020/12/08 07:53:06;;;;;;;8.00;7.30;;;;;;;15.14;53.06;99672.66;5021946;27;107458;-60
2020/12/08 07:55:43;;;;;;;9.40;7.45;;;;;;;15.21;53.38;99673.00;5022207;27;109279;-60
2020/12/08 07:58:09;;;;;;;7.65;6.88;;;;;;;15.33;53.55;99677.81;5019032;27;98110;-60
2020/12/08 08:00:36;;;;;;;8.00;7.20;;;;;;;15.51;53.31;99681.31;5002511;27;97925;-59
2020/12/08 08:03:02;;;;;;;7.85;7.05;;;;;;;15.69;53.08;99678.31;5002868;27;127881;-58
2020/12/08 08:05:29;;;;;;;7.80;7.03;;;;;;;15.95;52.69;99688.38;5021562;27;99192;-58
2020/12/08 08:07:55;;;;;;;7.78;6.93;;;;;;;16.25;52.11;99685.78;5021102;27;113259;-60
2020/12/08 08:10:21;;;;;;;7.72;7.03;;;;;;;16.54;51.41;99679.59;5021932;27;117660;-60
2020/12/08 08:12:48;;;;;;;7.57;6.82;;;;;;;16.82;51.23;99685.41;5020400;27;128051;-58
2020/12/08 08:15:14;;;;;;;7.57;6.88;;;;;;;17.03;50.70;99680.84;5020974;27;127206;-60
2020/12/08 08:17:40;;;;;;;7.05;6.35;;;;;;;17.21;51.08;99681.53;5022496;27;97895;-60
2020/12/08 08:20:06;;;;;;;7.18;6.47;;;;;;;17.43;51.12;99681.22;5003706;27;117999;-58
2020/12/08 08:22:33;;;;;;;6.82;6.22;;;;;;;17.63;51.13;99676.09;5001568;27;99228;-58
2020/12/08 08:24:59;;;;;;;7.43;6.72;;;;;;;17.84;51.02;99679.66;4982174;27;110988;-60
2020/12/08 08:27:25;;;;;;;8.10;7.00;;;;;;;18.06;51.05;99675.72;5000662;27;128056;-59
2020/12/08 08:29:51;;;;;;;7.22;6.53;;;;;;;18.30;51.12;99675.00;5000394;27;97931;-58
2020/12/08 08:32:17;;;;;;;7.13;6.25;;;;;;;18.58;50.93;99671.63;5001538;27;98126;-58
2020/12/08 08:34:43;;;;;;;7.18;6.50;;;;;;;18.74;51.13;99667.13;5000092;27;123297;-58
2020/12/08 08:37:09;;;;;;;7.38;6.68;;;;;;;18.89;51.68;99666.44;5000946;27;126362;-60
2020/12/08 08:39:35;;;;;;;7.53;6.82;;;;;;;19.06;51.55;99673.63;5000329;27;118005;-58
2020/12/08 08:42:01;;;;;;;7.75;7.05;;;;;;;19.27;51.74;99675.41;4981298;27;128163;-60
2020/12/08 08:44:27;;;;;;;8.05;7.32;;;;;;;19.52;51.86;99673.41;4982309;27;102839;-60
2020/12/08 08:46:53;;;;;;;7.78;7.07;;;;;;;19.71;51.88;99672.81;5007019;27;127359;-58
2020/12/08 08:49:19;;;;;;;8.40;7.60;;;;;;;19.92;52.25;99669.88;5020330;27;117378;-60
2020/12/08 08:51:46;;;;;;;8.07;7.30;;;;;;;20.09;52.49;99677.78;5021197;27;112840;-60
2020/12/08 08:54:14;;;;;;;7.90;7.20;;;;;;;20.26;52.61;99682.13;5012050;27;117609;-58
2020/12/08 08:56:40;;;;;;;8.50;7.65;;;;;;;20.32;53.41;99688.94;5001421;27;106551;-59
2020/12/08 08:59:06;;;;;;;7.88;7.18;;;;;;;20.43;53.38;99679.03;5019463;27;117894;-60
2020/12/08 09:01:35;;;;;;;7.93;7.22;;;;;;;20.55;53.79;99681.75;5018891;27;129295;-60
2020/12/08 09:04:02;;;;;;;8.50;7.70;;;;;;;20.64;54.07;99678.84;4999433;27;128240;-59
2020/12/08 09:06:28;;;;;;;7.88;7.18;;;;;;;20.71;53.89;99686.41;5021521;27;98106;-59
2020/12/08 09:08:54;;;;;;;8.15;7.45;;;;;;;20.75;54.22;99677.16;5019700;27;103785;-60
2020/12/08 09:11:20;;;;;;;7.82;7.13;;;;;;;20.84;54.49;99682.44;4980874;27;98350;-59
2020/12/08 09:13:48;;;;;;;7.40;6.70;;;;;;;20.97;54.24;99683.13;4981654;27;98428;-61
2020/12/08 09:16:14;;;;;;;7.60;6.82;;;;;;;21.05;54.41;99680.19;5012526;27;98421;-58
2020/12/08 09:18:40;;;;;;;7.43;6.72;;;;;;;21.11;54.32;99682.69;5014078;27;97766;-59
2020/12/08 09:21:06;;;;;;;7.45;6.75;;;;;;;21.19;54.36;99692.66;4999974;27;108009;-60
2020/12/08 09:23:32;;;;;;;7.45;6.75;;;;;;;21.18;54.65;99680.91;5014199;27;128888;-60
2020/12/08 09:25:58;;;;;;;7.65;7.05;;;;;;;21.20;54.91;99680.53;5019994;27;128385;-60
2020/12/08 09:28:25;;;;;;;7.13;6.53;;;;;;;21.22;55.24;99668.06;5021516;27;97852;-58
2020/12/08 09:30:52;;;;;;;7.45;6.75;;;;;;;21.17;55.53;99673.00;5020938;27;98847;-58
2020/12/08 09:33:18;;;;;;;7.75;6.88;;;;;;;21.06;55.14;99667.28;5021345;27;98452;-58
2020/12/08 09:35:44;;;;;;;6.90;6.28;;;;;;;20.94;55.56;99673.66;5019112;27;126852;-58
2020/12/08 09:38:10;;;;;;;7.05;6.43;;;;;;;20.83;55.92;99670.69;5020543;27;100436;-60
2020/12/08 09:40:37;;;;;;;7.65;6.95;;;;;;;20.72;56.59;99674.31;5019038;27;128455;-60
2020/12/08 09:43:04;;;;;;;7.22;6.53;;;;;;;20.60;56.10;99672.47;5007786;27;118861;-58
2020/12/08 09:45:30;;;;;;;7.22;6.57;;;;;;;20.47;56.92;99666.25;5014361;27;98006;-58
2020/12/08 09:47:56;;;;;;;6.78;6.18;;;;;;;20.36;57.68;99673.41;5019997;27;97858;-58
2020/12/08 09:50:23;;;;;;;7.35;6.65;;;;;;;20.24;57.74;99674.28;5000606;27;128293;-58
2020/12/08 09:52:49;;;;;;;7.30;6.15;;;;;;;20.00;56.93;99680.69;4980802;27;128002;-58
2020/12/08 09:55:15;;;;;;;6.53;5.93;;;;;;;19.87;58.65;99670.91;4981287;27;111101;-58
2020/12/08 09:57:41;;;;;;;6.70;6.10;;;;;;;19.74;58.77;99678.38;5016569;27;97905;-58
2020/12/08 10:00:07;;;;;;;6.78;6.18;;;;;;;19.56;58.89;99672.34;5019182;27;115976;-59
2020/12/08 10:02:34;;;;;;;6.90;6.30;;;;;;;19.40;58.47;99665.25;4982233;27;98582;-61
2020/12/08 10:05:00;;;;;;;6.50;5.78;;;;;;;19.18;58.46;99670.06;4999710;27;127673;-58
2020/12/08 10:07:26;;;;;;;6.82;6.13;;;;;;;19.00;58.86;99655.88;5007486;27;98016;-58
2020/12/08 10:09:52;;;;;;;6.47;5.88;;;;;;;18.87;58.88;99657.81;4999424;27;127953;-60
2020/12/08 10:12:18;;;;;;;6.72;6.05;;;;;;;18.74;58.08;99660.88;5019483;27;128988;-58
2020/12/08 10:14:45;;;;;;;5.78;5.28;;;;;;;18.63;58.16;99664.03;5018999;27;118870;-60
2020/12/08 10:17:12;;;;;;;6.05;5.40;;;;;;;18.48;57.99;99659.25;4985736;27;98759;-60
2020/12/08 10:19:39;;;;;;;6.43;5.82;;;;;;;18.41;57.98;99661.72;5021275;27;106983;-58
2020/12/08 10:22:05;;;;;;;5.68;5.18;;;;;;;18.33;58.44;99662.63;5024325;27;98425;-60
2020/12/08 10:24:31;;;;;;;6.28;5.68;;;;;;;18.25;58.15;99667.03;5018009;27;99715;-58
2020/12/08 10:26:57;;;;;;;6.07;5.50;;;;;;;18.17;58.10;99675.31;4985603;27;97864;-59
2020/12/08 10:29:23;;;;;;;5.75;5.00;;;;;;;18.12;57.56;99679.06;5007032;27;127938;-58
2020/12/08 10:31:53;;;;;;;6.10;5.30;;;;;;;18.04;57.88;99685.41;5023187;27;98293;-58
2020/12/08 10:34:19;;;;;;;5.85;5.35;;;;;;;18.01;58.07;99692.31;5009018;27;127911;-60
2020/12/08 10:36:46;;;;;;;5.85;5.25;;;;;;;17.99;57.65;99680.94;5002230;27;98158;-60
2020/12/08 10:39:12;;;;;;;5.25;4.72;;;;;;;17.97;58.03;99690.59;5018366;27;98451;-58
2020/12/08 10:41:38;;;;;;;5.55;4.95;;;;;;;17.93;58.09;99698.66;5020507;27;112370;-60
2020/12/08 10:44:07;;;;;;;5.32;4.82;;;;;;;17.94;58.39;99702.97;5021346;27;125271;-58
2020/12/08 10:46:35;;;;;;;5.40;4.70;;;;;;;17.91;57.91;99701.69;5018800;27;98102;-58
2020/12/08 10:49:01;;;;;;;5.05;4.57;;;;;;;17.84;57.03;99706.91;5007267;27;98538;-58
2020/12/08 10:51:27;;;;;;;5.45;4.95;;;;;;;17.80;56.96;99711.44;4999711;27;127926;-60
2020/12/08 10:53:53;;;;;;;4.90;4.50;;;;;;;17.80;56.86;99710.59;5001293;27;127967;-60
2020/12/08 10:56:20;;;;;;;4.70;4.25;;;;;;;17.76;56.51;99720.59;4982398;27;101413;-58
2020/12/08 10:58:48;;;;;;;5.57;4.72;;;;;;;17.69;56.16;99723.81;4984172;27;98465;-60
2020/12/08 11:01:21;;;;;;;4.80;4.40;;;;;;;17.63;55.65;99725.16;4966812;27;99863;-60
2020/12/08 11:03:48;;;;;;;4.63;4.22;;;;;;;17.64;55.96;99721.28;5001950;27;98296;-60
2020/12/08 11:06:23;;;;;;;5.13;4.63;;;;;;;17.55;56.51;99718.63;4974033;27;97819;-58
2020/12/08 11:08:49;;;;;;;4.68;4.28;;;;;;;17.57;56.19;99705.47;5010531;27;98371;-58
2020/12/08 11:11:21;;;;;;;4.50;4.10;;;;;;;17.52;57.12;99702.16;5001125;27;112608;-58
2020/12/08 11:13:47;;;;;;;;;;;;;;;17.45;56.67;99701.88;5019313;27;98685;-60
2020/12/08 11:16:14;;;;;;;4.53;4.13;;;;;;;17.43;56.78;99700.28;5023197;27;97807;-58
2020/12/08 11:18:40;;;;;;;4.47;4.07;;;;;;;17.35;56.13;99703.88;5022189;27;98203;-60
2020/12/08 11:21:06;;;;;;;4.40;4.00;;;;;;;17.35;56.46;99697.63;5021514;27;127556;-60
2020/12/08 11:23:32;;;;;;;4.53;4.13;;;;;;;17.33;56.68;99700.69;5013270;27;118253;-58
2020/12/08 11:25:58;;;;;;;4.38;3.95;;;;;;;17.29;57.00;99686.13;5002569;27;98111;-60
2020/12/08 11:28:24;;;;;;;5.07;4.38;;;;;;;17.28;57.25;99679.06;5000409;27;129046;-58
2020/12/08 11:30:50;;;;;;;4.35;3.95;;;;;;;17.25;57.33;99693.38;5016848;27;127650;-60